sensor_id;sensor_type;location;lat;lon;timestamp;temperature;humidity
67163;DHT22;54092;53.088;8.850;2023-02-28T00:00:07;4.30;99.90
67163;DHT22;54092;53.088;8.850;2023-02-28T00:02:36;4.30;99.90
67163;DHT22;54092;53.088;8.850;2023-02-28T00:05:01;4.30;99.90
67163;DHT22;54092;53.088;8.850;2023-02-28T00:07:31;4.30;99.90
67163;DHT22;54092;53.088;8.850;2023-02-28T00:09:57;4.30;99.90
67163;DHT22;54092;53.088;8.850;2023-02-28T00:12:23;4.30;99.90
67163;DHT22;54092;53.088;8.850;2023-02-28T00:14:49;4.30;99.90
67163;DHT22;54092;53.088;8.850;2023-02-28T00:17:15;4.30;99.90
67163;DHT22;54092;53.088;8.850;2023-02-28T00:19:43;4.30;99.90
67163;DHT22;54092;53.088;8.850;2023-02-28T00:22:09;4.30;99.90
67163;DHT22;54092;53.088;8.850;2023-02-28T00:24:34;4.30;99.90
67163;DHT22;54092;53.088;8.850;2023-02-28T00:26:59;4.30;99.90
67163;DHT22;54092;53.088;8.850;2023-02-28T00:29:25;4.30;99.90
67163;DHT22;54092;53.088;8.850;2023-02-28T00:31:50;4.30;99.90
67163;DHT22;54092;53.088;8.850;2023-02-28T00:34:16;4.30;99.90
67163;DHT22;54092;53.088;8.850;2023-02-28T00:36:41;4.30;99.90
67163;DHT22;54092;53.088;8.850;2023-02-28T00:39:10;4.30;99.90
67163;DHT22;54092;53.088;8.850;2023-02-28T00:41:36;4.30;99.90
67163;DHT22;54092;53.088;8.850;2023-02-28T00:44:01;4.30;99.90
67163;DHT22;54092;53.088;8.850;2023-02-28T00:46:27;4.30;99.90
67163;DHT22;54092;53.088;8.850;2023-02-28T00:48:52;4.30;99.90
67163;DHT22;54092;53.088;8.850;2023-02-28T00:51:18;4.30;99.90
67163;DHT22;54092;53.088;8.850;2023-02-28T00:53:43;4.30;99.90
67163;DHT22;54092;53.088;8.850;2023-02-28T00:56:09;4.30;99.90
67163;DHT22;54092;53.088;8.850;2023-02-28T00:58:35;4.30;99.90
67163;DHT22;54092;53.088;8.850;2023-02-28T01:01:00;4.20;99.90
67163;DHT22;54092;53.088;8.850;2023-02-28T01:03:26;4.20;99.90
67163;DHT22;54092;53.088;8.850;2023-02-28T01:05:52;4.20;99.90
67163;DHT22;54092;53.088;8.850;2023-02-28T01:08:18;4.20;99.90
67163;DHT22;54092;53.088;8.850;2023-02-28T01:10:44;4.10;99.90
67163;DHT22;54092;53.088;8.850;2023-02-28T01:13:10;4.10;99.90
67163;DHT22;54092;53.088;8.850;2023-02-28T01:15:35;4.10;99.90
67163;DHT22;54092;53.088;8.850;2023-02-28T01:18:01;4.10;99.90
67163;DHT22;54092;53.088;8.850;2023-02-28T01:20:27;4.10;99.90
67163;DHT22;54092;53.088;8.850;2023-02-28T01:22:52;4.10;99.90
67163;DHT22;54092;53.088;8.850;2023-02-28T01:25:17;4.10;99.90
67163;DHT22;54092;53.088;8.850;2023-02-28T01:27:43;4.10;99.90
67163;DHT22;54092;53.088;8.850;2023-02-28T01:30:09;4.10;99.90
67163;DHT22;54092;53.088;8.850;2023-02-28T01:32:35;4.10;99.90
67163;DHT22;54092;53.088;8.850;2023-02-28T01:35:01;4.10;99.90
67163;DHT22;54092;53.088;8.850;2023-02-28T01:37:27;4.10;99.90
67163;DHT22;54092;53.088;8.850;2023-02-28T01:39:52;4.10;99.90
67163;DHT22;54092;53.088;8.850;2023-02-28T01:42:17;4.10;99.90
67163;DHT22;54092;53.088;8.850;2023-02-28T01:47:34;4.10;99.90
67163;DHT22;54092;53.088;8.850;2023-02-28T01:50:04;4.10;99.90
67163;DHT22;54092;53.088;8.850;2023-02-28T01:52:30;4.10;99.90
67163;DHT22;54092;53.088;8.850;2023-02-28T01:54:59;4.10;99.90
67163;DHT22;54092;53.088;8.850;2023-02-28T01:57:32;4.10;99.90
67163;DHT22;54092;53.088;8.850;2023-02-28T02:00:08;4.00;99.90
67163;DHT22;54092;53.088;8.850;2023-02-28T02:02:35;4.00;99.90
67163;DHT22;54092;53.088;8.850;2023-02-28T02:05:14;4.00;99.90
67163;DHT22;54092;53.088;8.850;2023-02-28T02:07:41;4.00;99.90
67163;DHT22;54092;53.088;8.850;2023-02-28T02:10:18;4.00;99.90
67163;DHT22;54092;53.088;8.850;2023-02-28T02:13:22;4.00;99.90
67163;DHT22;54092;53.088;8.850;2023-02-28T02:18:47;4.00;99.90
67163;DHT22;54092;53.088;8.850;2023-02-28T02:21:41;4.00;99.90
67163;DHT22;54092;53.088;8.850;2023-02-28T02:27:14;3.90;99.90
67163;DHT22;54092;53.088;8.850;2023-02-28T02:41:15;3.80;99.90
67163;DHT22;54092;53.088;8.850;2023-02-28T02:43:53;3.70;99.90
67163;DHT22;54092;53.088;8.850;2023-02-28T02:46:37;3.60;99.90
67163;DHT22;54092;53.088;8.850;2023-02-28T02:49:07;3.70;99.90
67163;DHT22;54092;53.088;8.850;2023-02-28T02:51:35;3.60;99.90
67163;DHT22;54092;53.088;8.850;2023-02-28T02:54:13;3.50;99.90
67163;DHT22;54092;53.088;8.850;2023-02-28T02:56:43;3.50;99.90
67163;DHT22;54092;53.088;8.850;2023-02-28T02:59:11;3.50;99.90
67163;DHT22;54092;53.088;8.850;2023-02-28T03:01:38;3.40;99.90
67163;DHT22;54092;53.088;8.850;2023-02-28T03:04:11;3.50;99.90
67163;DHT22;54092;53.088;8.850;2023-02-28T03:06:38;3.40;99.90
67163;DHT22;54092;53.088;8.850;2023-02-28T03:09:04;3.40;99.90
67163;DHT22;54092;53.088;8.850;2023-02-28T03:11:30;3.40;99.90
67163;DHT22;54092;53.088;8.850;2023-02-28T03:14:25;3.30;99.90
67163;DHT22;54092;53.088;8.850;2023-02-28T03:17:24;3.30;99.90
67163;DHT22;54092;53.088;8.850;2023-02-28T03:20:03;3.30;99.90
67163;DHT22;54092;53.088;8.850;2023-02-28T03:22:45;3.30;99.90
67163;DHT22;54092;53.088;8.850;2023-02-28T03:25:41;3.30;99.90
67163;DHT22;54092;53.088;8.850;2023-02-28T03:31:08;3.10;99.90
67163;DHT22;54092;53.088;8.850;2023-02-28T03:33:43;3.10;99.90
67163;DHT22;54092;53.088;8.850;2023-02-28T03:36:16;3.00;99.90
67163;DHT22;54092;53.088;8.850;2023-02-28T03:38:52;3.00;99.90
67163;DHT22;54092;53.088;8.850;2023-02-28T03:41:26;2.90;99.90
67163;DHT22;54092;53.088;8.850;2023-02-28T03:44:09;2.80;99.90
67163;DHT22;54092;53.088;8.850;2023-02-28T03:46:44;2.80;99.90
67163;DHT22;54092;53.088;8.850;2023-02-28T03:49:20;2.70;99.90
67163;DHT22;54092;53.088;8.850;2023-02-28T03:51:48;2.60;99.90
67163;DHT22;54092;53.088;8.850;2023-02-28T03:54:19;2.60;99.90
67163;DHT22;54092;53.088;8.850;2023-02-28T03:56:53;2.40;99.90
67163;DHT22;54092;53.088;8.850;2023-02-28T03:59:53;2.40;99.90
67163;DHT22;54092;53.088;8.850;2023-02-28T04:02:19;2.30;99.90
67163;DHT22;54092;53.088;8.850;2023-02-28T04:04:45;2.30;99.90
67163;DHT22;54092;53.088;8.850;2023-02-28T04:07:14;2.20;99.90
67163;DHT22;54092;53.088;8.850;2023-02-28T04:09:40;2.20;99.90
67163;DHT22;54092;53.088;8.850;2023-02-28T04:12:06;2.20;99.90
67163;DHT22;54092;53.088;8.850;2023-02-28T04:14:31;2.20;99.90
67163;DHT22;54092;53.088;8.850;2023-02-28T04:16:57;2.20;99.90
67163;DHT22;54092;53.088;8.850;2023-02-28T04:19:22;2.20;99.90
67163;DHT22;54092;53.088;8.850;2023-02-28T04:21:52;2.20;99.90
67163;DHT22;54092;53.088;8.850;2023-02-28T04:24:20;2.20;99.90
67163;DHT22;54092;53.088;8.850;2023-02-28T04:26:48;2.20;99.90
67163;DHT22;54092;53.088;8.850;2023-02-28T04:29:23;2.20;99.90
67163;DHT22;54092;53.088;8.850;2023-02-28T04:31:48;2.30;99.90
67163;DHT22;54092;53.088;8.850;2023-02-28T04:34:14;2.30;99.90
67163;DHT22;54092;53.088;8.850;2023-02-28T04:36:40;2.20;99.90
67163;DHT22;54092;53.088;8.850;2023-02-28T04:39:05;2.20;99.90
67163;DHT22;54092;53.088;8.850;2023-02-28T04:41:31;2.20;99.90
67163;DHT22;54092;53.088;8.850;2023-02-28T04:43:56;2.10;99.90
67163;DHT22;54092;53.088;8.850;2023-02-28T04:46:22;2.10;99.90
67163;DHT22;54092;53.088;8.850;2023-02-28T04:48:48;2.00;99.90
67163;DHT22;54092;53.088;8.850;2023-02-28T04:51:15;2.00;99.90
67163;DHT22;54092;53.088;8.850;2023-02-28T04:53:41;2.00;99.90
67163;DHT22;54092;53.088;8.850;2023-02-28T04:56:10;2.00;99.90
67163;DHT22;54092;53.088;8.850;2023-02-28T04:58:36;2.00;99.90
67163;DHT22;54092;53.088;8.850;2023-02-28T05:01:23;1.90;99.90
67163;DHT22;54092;53.088;8.850;2023-02-28T05:03:50;1.90;99.90
67163;DHT22;54092;53.088;8.850;2023-02-28T05:06:17;1.90;99.90
67163;DHT22;54092;53.088;8.850;2023-02-28T05:08:42;1.90;99.90
67163;DHT22;54092;53.088;8.850;2023-02-28T05:13:41;1.90;99.90
67163;DHT22;54092;53.088;8.850;2023-02-28T05:16:07;1.80;99.90
67163;DHT22;54092;53.088;8.850;2023-02-28T05:18:32;1.80;99.90
67163;DHT22;54092;53.088;8.850;2023-02-28T05:20:59;1.70;99.90
67163;DHT22;54092;53.088;8.850;2023-02-28T05:23:27;1.70;99.90
67163;DHT22;54092;53.088;8.850;2023-02-28T05:25:52;1.60;99.90
67163;DHT22;54092;53.088;8.850;2023-02-28T05:28:19;1.60;99.90
67163;DHT22;54092;53.088;8.850;2023-02-28T05:30:45;1.50;99.90
67163;DHT22;54092;53.088;8.850;2023-02-28T05:33:11;1.40;99.90
67163;DHT22;54092;53.088;8.850;2023-02-28T05:35:40;1.40;99.90
67163;DHT22;54092;53.088;8.850;2023-02-28T05:38:08;1.30;99.90
67163;DHT22;54092;53.088;8.850;2023-02-28T05:40:34;1.20;99.90
67163;DHT22;54092;53.088;8.850;2023-02-28T05:42:59;1.10;99.90
67163;DHT22;54092;53.088;8.850;2023-02-28T05:45:25;1.10;99.90
67163;DHT22;54092;53.088;8.850;2023-02-28T05:47:54;1.00;99.90
67163;DHT22;54092;53.088;8.850;2023-02-28T05:50:19;1.00;99.90
67163;DHT22;54092;53.088;8.850;2023-02-28T05:52:50;0.90;99.90
67163;DHT22;54092;53.088;8.850;2023-02-28T05:55:15;0.90;99.90
67163;DHT22;54092;53.088;8.850;2023-02-28T05:57:41;0.80;99.90
67163;DHT22;54092;53.088;8.850;2023-02-28T06:00:08;0.80;99.90
67163;DHT22;54092;53.088;8.850;2023-02-28T06:02:33;0.80;99.90
67163;DHT22;54092;53.088;8.850;2023-02-28T06:04:59;0.80;99.90
67163;DHT22;54092;53.088;8.850;2023-02-28T06:07:24;0.70;99.90
67163;DHT22;54092;53.088;8.850;2023-02-28T06:09:50;0.70;99.90
67163;DHT22;54092;53.088;8.850;2023-02-28T06:12:15;0.70;99.90
67163;DHT22;54092;53.088;8.850;2023-02-28T06:14:41;0.70;99.90
67163;DHT22;54092;53.088;8.850;2023-02-28T06:17:06;0.70;99.90
67163;DHT22;54092;53.088;8.850;2023-02-28T06:19:32;0.70;99.90
67163;DHT22;54092;53.088;8.850;2023-02-28T06:21:57;0.70;99.90
67163;DHT22;54092;53.088;8.850;2023-02-28T06:24:26;0.60;99.90
67163;DHT22;54092;53.088;8.850;2023-02-28T06:26:53;0.60;99.90
67163;DHT22;54092;53.088;8.850;2023-02-28T06:29:19;0.60;99.90
67163;DHT22;54092;53.088;8.850;2023-02-28T06:31:47;0.60;99.90
67163;DHT22;54092;53.088;8.850;2023-02-28T06:34:13;0.60;99.90
67163;DHT22;54092;53.088;8.850;2023-02-28T06:36:40;0.60;99.90
67163;DHT22;54092;53.088;8.850;2023-02-28T06:39:07;0.60;99.90
67163;DHT22;54092;53.088;8.850;2023-02-28T06:41:32;0.70;99.90
67163;DHT22;54092;53.088;8.850;2023-02-28T06:44:13;0.80;99.90
67163;DHT22;54092;53.088;8.850;2023-02-28T06:46:41;0.80;99.90
67163;DHT22;54092;53.088;8.850;2023-02-28T06:49:07;0.80;99.90
67163;DHT22;54092;53.088;8.850;2023-02-28T06:51:38;0.80;99.90
67163;DHT22;54092;53.088;8.850;2023-02-28T06:54:04;0.90;99.90
67163;DHT22;54092;53.088;8.850;2023-02-28T06:56:30;1.00;99.90
67163;DHT22;54092;53.088;8.850;2023-02-28T06:58:56;1.00;99.90
67163;DHT22;54092;53.088;8.850;2023-02-28T07:01:22;1.00;99.90
67163;DHT22;54092;53.088;8.850;2023-02-28T07:03:49;1.00;99.90
67163;DHT22;54092;53.088;8.850;2023-02-28T07:06:18;1.00;99.90
67163;DHT22;54092;53.088;8.850;2023-02-28T07:08:44;1.00;99.90
67163;DHT22;54092;53.088;8.850;2023-02-28T07:11:10;1.10;99.90
67163;DHT22;54092;53.088;8.850;2023-02-28T07:13:36;1.10;99.90
67163;DHT22;54092;53.088;8.850;2023-02-28T07:16:06;1.20;99.90
67163;DHT22;54092;53.088;8.850;2023-02-28T07:18:34;1.30;99.90
67163;DHT22;54092;53.088;8.850;2023-02-28T07:21:04;1.30;99.90
67163;DHT22;54092;53.088;8.850;2023-02-28T07:23:30;1.40;99.90
67163;DHT22;54092;53.088;8.850;2023-02-28T07:25:57;1.50;99.90
67163;DHT22;54092;53.088;8.850;2023-02-28T07:28:23;1.50;99.90
67163;DHT22;54092;53.088;8.850;2023-02-28T07:30:49;1.60;99.90
67163;DHT22;54092;53.088;8.850;2023-02-28T07:33:14;1.60;99.90
67163;DHT22;54092;53.088;8.850;2023-02-28T07:35:40;1.70;99.90
67163;DHT22;54092;53.088;8.850;2023-02-28T07:38:05;1.80;99.90
67163;DHT22;54092;53.088;8.850;2023-02-28T07:40:33;1.90;99.90
67163;DHT22;54092;53.088;8.850;2023-02-28T07:43:00;2.00;99.90
67163;DHT22;54092;53.088;8.850;2023-02-28T07:45:26;2.00;99.90
67163;DHT22;54092;53.088;8.850;2023-02-28T07:47:54;2.10;99.90
67163;DHT22;54092;53.088;8.850;2023-02-28T07:50:19;2.30;99.90
67163;DHT22;54092;53.088;8.850;2023-02-28T07:52:45;2.30;99.90
67163;DHT22;54092;53.088;8.850;2023-02-28T07:55:10;2.40;99.90
67163;DHT22;54092;53.088;8.850;2023-02-28T07:57:36;2.50;99.90
67163;DHT22;54092;53.088;8.850;2023-02-28T08:00:07;2.50;99.90
67163;DHT22;54092;53.088;8.850;2023-02-28T08:02:34;2.60;99.90
67163;DHT22;54092;53.088;8.850;2023-02-28T08:05:00;2.70;99.90
67163;DHT22;54092;53.088;8.850;2023-02-28T08:07:26;2.80;99.90
67163;DHT22;54092;53.088;8.850;2023-02-28T08:09:51;2.90;99.90
67163;DHT22;54092;53.088;8.850;2023-02-28T08:12:17;3.00;99.90
67163;DHT22;54092;53.088;8.850;2023-02-28T08:14:42;3.10;99.90
67163;DHT22;54092;53.088;8.850;2023-02-28T08:17:09;3.20;99.90
67163;DHT22;54092;53.088;8.850;2023-02-28T08:19:35;3.30;99.90
67163;DHT22;54092;53.088;8.850;2023-02-28T08:22:01;3.50;99.90
67163;DHT22;54092;53.088;8.850;2023-02-28T08:24:26;3.50;99.90
67163;DHT22;54092;53.088;8.850;2023-02-28T08:26:52;3.70;99.90
67163;DHT22;54092;53.088;8.850;2023-02-28T08:29:17;3.80;99.90
67163;DHT22;54092;53.088;8.850;2023-02-28T08:31:43;3.90;99.90
67163;DHT22;54092;53.088;8.850;2023-02-28T08:34:10;4.00;99.90
67163;DHT22;54092;53.088;8.850;2023-02-28T08:36:36;4.20;99.90
67163;DHT22;54092;53.088;8.850;2023-02-28T08:39:02;4.40;99.90
67163;DHT22;54092;53.088;8.850;2023-02-28T08:41:28;4.90;99.90
67163;DHT22;54092;53.088;8.850;2023-02-28T08:43:53;5.60;99.90
67163;DHT22;54092;53.088;8.850;2023-02-28T08:46:19;6.60;99.90
67163;DHT22;54092;53.088;8.850;2023-02-28T08:48:45;7.40;99.90
67163;DHT22;54092;53.088;8.850;2023-02-28T08:51:13;8.00;99.90
67163;DHT22;54092;53.088;8.850;2023-02-28T08:53:40;8.50;99.90
67163;DHT22;54092;53.088;8.850;2023-02-28T08:56:10;9.10;99.90
67163;DHT22;54092;53.088;8.850;2023-02-28T08:58:36;9.50;99.90
67163;DHT22;54092;53.088;8.850;2023-02-28T09:01:09;10.00;99.90
67163;DHT22;54092;53.088;8.850;2023-02-28T09:03:35;10.50;99.90
67163;DHT22;54092;53.088;8.850;2023-02-28T09:06:01;10.80;99.90
67163;DHT22;54092;53.088;8.850;2023-02-28T09:08:29;11.00;99.90
67163;DHT22;54092;53.088;8.850;2023-02-28T09:10:56;11.00;99.90
67163;DHT22;54092;53.088;8.850;2023-02-28T09:13:23;11.90;99.90
67163;DHT22;54092;53.088;8.850;2023-02-28T09:15:49;11.90;99.90
67163;DHT22;54092;53.088;8.850;2023-02-28T09:18:15;12.00;99.90
67163;DHT22;54092;53.088;8.850;2023-02-28T09:20:41;12.60;99.90
67163;DHT22;54092;53.088;8.850;2023-02-28T09:23:08;12.90;99.90
67163;DHT22;54092;53.088;8.850;2023-02-28T09:25:35;13.10;99.90
67163;DHT22;54092;53.088;8.850;2023-02-28T09:28:01;12.70;99.90
67163;DHT22;54092;53.088;8.850;2023-02-28T09:30:26;12.90;99.90
67163;DHT22;54092;53.088;8.850;2023-02-28T09:32:52;13.50;99.90
67163;DHT22;54092;53.088;8.850;2023-02-28T09:35:22;13.90;99.90
67163;DHT22;54092;53.088;8.850;2023-02-28T09:37:50;14.00;99.90
67163;DHT22;54092;53.088;8.850;2023-02-28T09:40:21;13.90;99.90
67163;DHT22;54092;53.088;8.850;2023-02-28T09:42:48;14.20;99.90
67163;DHT22;54092;53.088;8.850;2023-02-28T09:45:28;14.60;99.90
67163;DHT22;54092;53.088;8.850;2023-02-28T09:47:59;14.80;99.90
67163;DHT22;54092;53.088;8.850;2023-02-28T09:50:36;14.50;99.90
67163;DHT22;54092;53.088;8.850;2023-02-28T09:53:11;14.80;99.90
67163;DHT22;54092;53.088;8.850;2023-02-28T09:55:44;15.00;99.90
67163;DHT22;54092;53.088;8.850;2023-02-28T09:58:41;15.40;99.90
67163;DHT22;54092;53.088;8.850;2023-02-28T10:03:47;15.50;99.90
67163;DHT22;54092;53.088;8.850;2023-02-28T10:06:21;16.30;99.90
67163;DHT22;54092;53.088;8.850;2023-02-28T10:09:00;16.30;99.90
67163;DHT22;54092;53.088;8.850;2023-02-28T10:11:27;16.10;99.90
67163;DHT22;54092;53.088;8.850;2023-02-28T10:14:00;15.90;99.90
67163;DHT22;54092;53.088;8.850;2023-02-28T10:16:41;16.00;99.90
67163;DHT22;54092;53.088;8.850;2023-02-28T10:19:20;15.70;99.90
67163;DHT22;54092;53.088;8.850;2023-02-28T10:21:56;15.50;99.90
67163;DHT22;54092;53.088;8.850;2023-02-28T10:24:39;15.20;99.90
67163;DHT22;54092;53.088;8.850;2023-02-28T10:29:46;15.80;99.90
67163;DHT22;54092;53.088;8.850;2023-02-28T10:32:18;17.20;99.90
67163;DHT22;54092;53.088;8.850;2023-02-28T10:34:50;17.40;99.90
67163;DHT22;54092;53.088;8.850;2023-02-28T10:37:16;17.70;99.90
67163;DHT22;54092;53.088;8.850;2023-02-28T10:39:45;17.50;99.90
67163;DHT22;54092;53.088;8.850;2023-02-28T10:42:37;17.40;99.90
67163;DHT22;54092;53.088;8.850;2023-02-28T10:45:11;17.30;99.90
67163;DHT22;54092;53.088;8.850;2023-02-28T10:47:52;17.50;99.90
67163;DHT22;54092;53.088;8.850;2023-02-28T10:50:39;17.10;99.90
67163;DHT22;54092;53.088;8.850;2023-02-28T10:53:28;16.90;99.90
67163;DHT22;54092;53.088;8.850;2023-02-28T10:56:04;17.00;99.90
67163;DHT22;54092;53.088;8.850;2023-02-28T11:01:36;16.40;99.90
67163;DHT22;54092;53.088;8.850;2023-02-28T11:04:13;16.90;99.90
67163;DHT22;54092;53.088;8.850;2023-02-28T11:06:42;16.90;99.90
67163;DHT22;54092;53.088;8.850;2023-02-28T11:09:27;16.60;99.90
67163;DHT22;54092;53.088;8.850;2023-02-28T11:11:54;17.20;99.90
67163;DHT22;54092;53.088;8.850;2023-02-28T11:14:32;16.80;99.90
67163;DHT22;54092;53.088;8.850;2023-02-28T11:17:11;16.50;99.90
67163;DHT22;54092;53.088;8.850;2023-02-28T11:19:41;16.50;99.90
67163;DHT22;54092;53.088;8.850;2023-02-28T11:22:09;16.60;99.90
67163;DHT22;54092;53.088;8.850;2023-02-28T11:24:42;16.40;99.90
67163;DHT22;54092;53.088;8.850;2023-02-28T11:27:43;16.00;99.90
67163;DHT22;54092;53.088;8.850;2023-02-28T11:30:40;16.40;99.90
67163;DHT22;54092;53.088;8.850;2023-02-28T11:35:50;17.00;99.90
67163;DHT22;54092;53.088;8.850;2023-02-28T11:38:16;16.30;99.90
67163;DHT22;54092;53.088;8.850;2023-02-28T11:41:28;16.10;99.90
67163;DHT22;54092;53.088;8.850;2023-02-28T11:46:35;17.00;99.90
67163;DHT22;54092;53.088;8.850;2023-02-28T11:49:28;16.70;99.90
67163;DHT22;54092;53.088;8.850;2023-02-28T11:52:02;16.40;99.90
67163;DHT22;54092;53.088;8.850;2023-02-28T11:59:56;17.20;99.90
67163;DHT22;54092;53.088;8.850;2023-02-28T12:02:48;18.00;99.90
67163;DHT22;54092;53.088;8.850;2023-02-28T12:05:28;17.40;99.90
67163;DHT22;54092;53.088;8.850;2023-02-28T12:10:30;16.40;99.90
67163;DHT22;54092;53.088;8.850;2023-02-28T12:13:26;16.00;99.90
67163;DHT22;54092;53.088;8.850;2023-02-28T12:16:00;15.50;99.90
67163;DHT22;54092;53.088;8.850;2023-02-28T12:18:50;14.80;99.90
67163;DHT22;54092;53.088;8.850;2023-02-28T12:22:00;14.40;99.90
67163;DHT22;54092;53.088;8.850;2023-02-28T12:27:15;15.50;99.90
67163;DHT22;54092;53.088;8.850;2023-02-28T12:30:04;15.90;99.90
67163;DHT22;54092;53.088;8.850;2023-02-28T12:32:33;15.90;99.90
67163;DHT22;54092;53.088;8.850;2023-02-28T12:35:13;16.00;99.90
67163;DHT22;54092;53.088;8.850;2023-02-28T12:37:50;15.50;99.90
67163;DHT22;54092;53.088;8.850;2023-02-28T12:40:20;16.00;99.90
67163;DHT22;54092;53.088;8.850;2023-02-28T12:42:52;16.30;99.90
67163;DHT22;54092;53.088;8.850;2023-02-28T12:45:36;15.80;99.90
67163;DHT22;54092;53.088;8.850;2023-02-28T12:48:08;15.90;99.90
67163;DHT22;54092;53.088;8.850;2023-02-28T12:50:36;16.10;99.90
67163;DHT22;54092;53.088;8.850;2023-02-28T12:53:25;15.90;99.90
67163;DHT22;54092;53.088;8.850;2023-02-28T12:56:29;16.10;99.90
67163;DHT22;54092;53.088;8.850;2023-02-28T12:59:03;16.00;99.90
67163;DHT22;54092;53.088;8.850;2023-02-28T13:07:29;15.60;99.90
67163;DHT22;54092;53.088;8.850;2023-02-28T13:10:00;16.00;99.90
67163;DHT22;54092;53.088;8.850;2023-02-28T13:12:27;15.90;99.90
67163;DHT22;54092;53.088;8.850;2023-02-28T13:15:12;15.80;99.90
67163;DHT22;54092;53.088;8.850;2023-02-28T13:17:41;16.00;99.90
67163;DHT22;54092;53.088;8.850;2023-02-28T13:20:21;15.90;99.90
67163;DHT22;54092;53.088;8.850;2023-02-28T13:22:50;16.10;99.90
67163;DHT22;54092;53.088;8.850;2023-02-28T13:28:11;16.50;99.90
67163;DHT22;54092;53.088;8.850;2023-02-28T13:33:35;16.10;99.90
67163;DHT22;54092;53.088;8.850;2023-02-28T13:38:44;16.30;99.90
67163;DHT22;54092;53.088;8.850;2023-02-28T13:51:52;15.60;99.90
67163;DHT22;54092;53.088;8.850;2023-02-28T13:54:50;15.30;99.90
67163;DHT22;54092;53.088;8.850;2023-02-28T13:57:41;15.30;99.90
67163;DHT22;54092;53.088;8.850;2023-02-28T14:00:28;15.00;99.90
67163;DHT22;54092;53.088;8.850;2023-02-28T14:09:19;14.40;99.90
67163;DHT22;54092;53.088;8.850;2023-02-28T14:11:46;15.40;99.90
67163;DHT22;54092;53.088;8.850;2023-02-28T14:17:08;14.50;99.90
67163;DHT22;54092;53.088;8.850;2023-02-28T14:19:39;14.30;99.90
67163;DHT22;54092;53.088;8.850;2023-02-28T14:22:43;14.30;99.90
67163;DHT22;54092;53.088;8.850;2023-02-28T14:27:57;11.90;99.90
67163;DHT22;54092;53.088;8.850;2023-02-28T14:38:35;10.50;99.90
67163;DHT22;54092;53.088;8.850;2023-02-28T14:41:04;10.70;99.90
67163;DHT22;54092;53.088;8.850;2023-02-28T14:43:32;10.80;99.90
67163;DHT22;54092;53.088;8.850;2023-02-28T14:46:00;10.70;99.90
67163;DHT22;54092;53.088;8.850;2023-02-28T14:48:27;10.30;99.90
67163;DHT22;54092;53.088;8.850;2023-02-28T14:51:00;10.30;99.90
67163;DHT22;54092;53.088;8.850;2023-02-28T14:53:28;10.20;99.90
67163;DHT22;54092;53.088;8.850;2023-02-28T14:55:54;10.10;99.90
67163;DHT22;54092;53.088;8.850;2023-02-28T14:58:29;9.90;99.90
67163;DHT22;54092;53.088;8.850;2023-02-28T15:00:58;9.80;99.90
67163;DHT22;54092;53.088;8.850;2023-02-28T15:03:36;9.60;99.90
67163;DHT22;54092;53.088;8.850;2023-02-28T15:06:12;9.40;99.90
67163;DHT22;54092;53.088;8.850;2023-02-28T15:08:38;9.40;99.90
67163;DHT22;54092;53.088;8.850;2023-02-28T15:11:05;9.60;99.90
67163;DHT22;54092;53.088;8.850;2023-02-28T15:13:41;9.70;99.90
67163;DHT22;54092;53.088;8.850;2023-02-28T15:16:12;9.70;99.90
67163;DHT22;54092;53.088;8.850;2023-02-28T15:18:42;9.70;99.90
67163;DHT22;54092;53.088;8.850;2023-02-28T15:21:17;9.60;99.90
67163;DHT22;54092;53.088;8.850;2023-02-28T15:23:46;9.70;99.90
67163;DHT22;54092;53.088;8.850;2023-02-28T15:26:20;9.60;99.90
67163;DHT22;54092;53.088;8.850;2023-02-28T15:28:50;9.50;99.90
67163;DHT22;54092;53.088;8.850;2023-02-28T15:31:27;9.40;99.90
67163;DHT22;54092;53.088;8.850;2023-02-28T15:33:55;9.40;99.90
67163;DHT22;54092;53.088;8.850;2023-02-28T15:36:28;9.30;99.90
67163;DHT22;54092;53.088;8.850;2023-02-28T15:38:54;9.30;99.90
67163;DHT22;54092;53.088;8.850;2023-02-28T15:41:35;9.20;99.90
67163;DHT22;54092;53.088;8.850;2023-02-28T15:44:24;8.90;99.90
67163;DHT22;54092;53.088;8.850;2023-02-28T15:49:27;8.30;99.90
67163;DHT22;54092;53.088;8.850;2023-02-28T15:51:56;8.10;99.90
67163;DHT22;54092;53.088;8.850;2023-02-28T15:54:28;8.10;99.90
67163;DHT22;54092;53.088;8.850;2023-02-28T15:56:56;8.00;99.90
67163;DHT22;54092;53.088;8.850;2023-02-28T15:59:27;8.00;99.90
67163;DHT22;54092;53.088;8.850;2023-02-28T16:02:17;7.80;99.90
67163;DHT22;54092;53.088;8.850;2023-02-28T16:07:31;7.70;99.90
67163;DHT22;54092;53.088;8.850;2023-02-28T16:09:56;7.60;99.90
67163;DHT22;54092;53.088;8.850;2023-02-28T16:12:26;7.50;99.90
67163;DHT22;54092;53.088;8.850;2023-02-28T16:14:53;7.50;99.90
67163;DHT22;54092;53.088;8.850;2023-02-28T16:17:26;7.50;99.90
67163;DHT22;54092;53.088;8.850;2023-02-28T16:19:53;7.40;99.90
67163;DHT22;54092;53.088;8.850;2023-02-28T16:22:18;7.40;99.90
67163;DHT22;54092;53.088;8.850;2023-02-28T16:24:44;7.40;99.90
67163;DHT22;54092;53.088;8.850;2023-02-28T16:27:24;7.30;99.90
67163;DHT22;54092;53.088;8.850;2023-02-28T16:29:52;7.20;99.90
67163;DHT22;54092;53.088;8.850;2023-02-28T16:32:18;7.30;99.90
67163;DHT22;54092;53.088;8.850;2023-02-28T16:34:44;7.20;99.90
67163;DHT22;54092;53.088;8.850;2023-02-28T16:37:13;7.20;99.90
67163;DHT22;54092;53.088;8.850;2023-02-28T16:39:39;7.10;99.90
67163;DHT22;54092;53.088;8.850;2023-02-28T16:42:04;7.10;99.90
67163;DHT22;54092;53.088;8.850;2023-02-28T16:44:35;7.10;99.90
67163;DHT22;54092;53.088;8.850;2023-02-28T16:47:01;7.30;99.90
67163;DHT22;54092;53.088;8.850;2023-02-28T16:49:27;7.10;99.90
67163;DHT22;54092;53.088;8.850;2023-02-28T16:51:53;6.90;99.90
67163;DHT22;54092;53.088;8.850;2023-02-28T16:54:18;6.80;99.90
67163;DHT22;54092;53.088;8.850;2023-02-28T16:56:46;6.70;99.90
67163;DHT22;54092;53.088;8.850;2023-02-28T16:59:12;6.60;99.90
67163;DHT22;54092;53.088;8.850;2023-02-28T17:01:39;6.50;99.90
67163;DHT22;54092;53.088;8.850;2023-02-28T17:04:05;6.30;99.90
67163;DHT22;54092;53.088;8.850;2023-02-28T17:06:30;6.20;99.90
67163;DHT22;54092;53.088;8.850;2023-02-28T17:08:57;6.20;99.90
67163;DHT22;54092;53.088;8.850;2023-02-28T17:11:23;6.10;99.90
67163;DHT22;54092;53.088;8.850;2023-02-28T17:13:49;6.00;99.90
67163;DHT22;54092;53.088;8.850;2023-02-28T17:16:35;5.90;99.90
67163;DHT22;54092;53.088;8.850;2023-02-28T17:19:04;5.80;99.90
67163;DHT22;54092;53.088;8.850;2023-02-28T17:21:31;5.70;99.90
67163;DHT22;54092;53.088;8.850;2023-02-28T17:23:58;5.70;99.90
67163;DHT22;54092;53.088;8.850;2023-02-28T17:26:24;5.60;99.90
67163;DHT22;54092;53.088;8.850;2023-02-28T17:28:51;5.60;99.90
67163;DHT22;54092;53.088;8.850;2023-02-28T17:31:17;5.50;99.90
67163;DHT22;54092;53.088;8.850;2023-02-28T17:33:43;5.40;99.90
67163;DHT22;54092;53.088;8.850;2023-02-28T17:36:17;5.40;99.90
67163;DHT22;54092;53.088;8.850;2023-02-28T17:38:47;5.30;99.90
67163;DHT22;54092;53.088;8.850;2023-02-28T17:41:13;5.20;99.90
67163;DHT22;54092;53.088;8.850;2023-02-28T17:43:38;5.10;99.90